sensor_id;sensor_type;location;lat;lon;timestamp;temperature;humidity
46754;DHT22;32500;50.620;3.400;2023-06-14T00:00:40;22.30;58.80
46754;DHT22;32500;50.620;3.400;2023-06-14T00:03:10;22.20;58.80
46754;DHT22;32500;50.620;3.400;2023-06-14T00:05:37;22.20;58.90
46754;DHT22;32500;50.620;3.400;2023-06-14T00:08:09;22.20;59.10
46754;DHT22;32500;50.620;3.400;2023-06-14T00:10:38;22.10;59.30
46754;DHT22;32500;50.620;3.400;2023-06-14T00:13:07;22.10;59.30
46754;DHT22;32500;50.620;3.400;2023-06-14T00:15:33;22.10;59.60
46754;DHT22;32500;50.620;3.400;2023-06-14T00:17:58;22.00;59.70
46754;DHT22;32500;50.620;3.400;2023-06-14T00:20:28;22.00;59.70
46754;DHT22;32500;50.620;3.400;2023-06-14T00:22:54;22.00;59.90
46754;DHT22;32500;50.620;3.400;2023-06-14T00:25:23;22.00;59.90
46754;DHT22;32500;50.620;3.400;2023-06-14T00:27:53;22.00;60.30
46754;DHT22;32500;50.620;3.400;2023-06-14T00:30:19;21.90;60.00
46754;DHT22;32500;50.620;3.400;2023-06-14T00:32:45;21.90;60.50
46754;DHT22;32500;50.620;3.400;2023-06-14T00:35:11;21.90;60.40
46754;DHT22;32500;50.620;3.400;2023-06-14T00:37:36;21.90;60.60
46754;DHT22;32500;50.620;3.400;2023-06-14T00:40:03;21.80;60.90
46754;DHT22;32500;50.620;3.400;2023-06-14T00:42:30;21.80;60.90
46754;DHT22;32500;50.620;3.400;2023-06-14T00:44:56;21.80;61.10
46754;DHT22;32500;50.620;3.400;2023-06-14T00:47:22;21.80;61.00
46754;DHT22;32500;50.620;3.400;2023-06-14T00:49:49;21.80;61.50
46754;DHT22;32500;50.620;3.400;2023-06-14T00:52:16;21.80;61.30
46754;DHT22;32500;50.620;3.400;2023-06-14T00:54:42;21.80;61.50
46754;DHT22;32500;50.620;3.400;2023-06-14T00:57:12;21.70;61.70
46754;DHT22;32500;50.620;3.400;2023-06-14T00:59:44;21.70;62.10
46754;DHT22;32500;50.620;3.400;2023-06-14T01:02:11;21.70;62.00
46754;DHT22;32500;50.620;3.400;2023-06-14T01:04:37;21.70;61.70
46754;DHT22;32500;50.620;3.400;2023-06-14T01:10:26;21.70;62.10
46754;DHT22;32500;50.620;3.400;2023-06-14T01:15:21;21.60;62.30
46754;DHT22;32500;50.620;3.400;2023-06-14T01:17:49;21.60;62.10
46754;DHT22;32500;50.620;3.400;2023-06-14T01:20:18;21.50;62.70
46754;DHT22;32500;50.620;3.400;2023-06-14T01:25:18;21.50;62.70
46754;DHT22;32500;50.620;3.400;2023-06-14T01:27:51;21.50;62.70
46754;DHT22;32500;50.620;3.400;2023-06-14T01:30:18;21.50;62.90
46754;DHT22;32500;50.620;3.400;2023-06-14T01:32:47;21.50;63.00
46754;DHT22;32500;50.620;3.400;2023-06-14T01:35:12;21.40;62.80
46754;DHT22;32500;50.620;3.400;2023-06-14T01:37:39;21.40;62.60
46754;DHT22;32500;50.620;3.400;2023-06-14T01:40:07;21.40;63.10
46754;DHT22;32500;50.620;3.400;2023-06-14T01:42:36;21.40;63.40
46754;DHT22;32500;50.620;3.400;2023-06-14T01:45:03;21.40;63.60
46754;DHT22;32500;50.620;3.400;2023-06-14T01:47:30;21.30;63.40
46754;DHT22;32500;50.620;3.400;2023-06-14T01:49:57;21.30;63.60
46754;DHT22;32500;50.620;3.400;2023-06-14T01:52:22;21.30;64.10
46754;DHT22;32500;50.620;3.400;2023-06-14T01:54:50;21.30;63.50
46754;DHT22;32500;50.620;3.400;2023-06-14T01:57:15;21.30;64.10
46754;DHT22;32500;50.620;3.400;2023-06-14T01:59:41;21.30;63.70
46754;DHT22;32500;50.620;3.400;2023-06-14T02:02:07;21.30;63.60
46754;DHT22;32500;50.620;3.400;2023-06-14T02:04:33;21.30;64.30
46754;DHT22;32500;50.620;3.400;2023-06-14T02:06:58;21.30;64.20
46754;DHT22;32500;50.620;3.400;2023-06-14T02:09:24;21.20;64.40
46754;DHT22;32500;50.620;3.400;2023-06-14T02:11:50;21.20;64.40
46754;DHT22;32500;50.620;3.400;2023-06-14T02:14:16;21.20;64.70
46754;DHT22;32500;50.620;3.400;2023-06-14T02:16:42;21.20;64.00
46754;DHT22;32500;50.620;3.400;2023-06-14T02:19:15;21.20;64.30
46754;DHT22;32500;50.620;3.400;2023-06-14T02:21:42;21.20;64.10
46754;DHT22;32500;50.620;3.400;2023-06-14T02:24:08;21.20;64.30
46754;DHT22;32500;50.620;3.400;2023-06-14T02:26:33;21.10;65.10
46754;DHT22;32500;50.620;3.400;2023-06-14T02:28:59;21.10;65.10
46754;DHT22;32500;50.620;3.400;2023-06-14T02:31:25;21.10;64.40
46754;DHT22;32500;50.620;3.400;2023-06-14T02:33:51;21.10;65.30
46754;DHT22;32500;50.620;3.400;2023-06-14T02:36:16;21.00;64.20
46754;DHT22;32500;50.620;3.400;2023-06-14T02:38:42;21.00;65.10
46754;DHT22;32500;50.620;3.400;2023-06-14T02:41:08;21.10;65.40
46754;DHT22;32500;50.620;3.400;2023-06-14T02:43:33;21.00;65.30
46754;DHT22;32500;50.620;3.400;2023-06-14T02:45:59;21.00;65.00
46754;DHT22;32500;50.620;3.400;2023-06-14T02:48:25;21.00;65.50
46754;DHT22;32500;50.620;3.400;2023-06-14T02:50:50;20.90;65.20
46754;DHT22;32500;50.620;3.400;2023-06-14T02:53:16;21.00;65.60
46754;DHT22;32500;50.620;3.400;2023-06-14T02:55:42;20.90;66.00
46754;DHT22;32500;50.620;3.400;2023-06-14T02:58:08;20.90;66.00
46754;DHT22;32500;50.620;3.400;2023-06-14T03:00:34;20.90;65.70
46754;DHT22;32500;50.620;3.400;2023-06-14T03:03:00;20.90;65.70
46754;DHT22;32500;50.620;3.400;2023-06-14T03:05:27;20.90;65.40
46754;DHT22;32500;50.620;3.400;2023-06-14T03:07:53;20.80;66.10
46754;DHT22;32500;50.620;3.400;2023-06-14T03:10:19;20.90;66.60
46754;DHT22;32500;50.620;3.400;2023-06-14T03:12:46;20.90;66.00
46754;DHT22;32500;50.620;3.400;2023-06-14T03:15:12;20.90;66.40
46754;DHT22;32500;50.620;3.400;2023-06-14T03:17:42;20.80;66.20
46754;DHT22;32500;50.620;3.400;2023-06-14T03:20:10;20.70;66.20
46754;DHT22;32500;50.620;3.400;2023-06-14T03:22:37;20.80;65.70
46754;DHT22;32500;50.620;3.400;2023-06-14T03:25:03;20.80;66.20
46754;DHT22;32500;50.620;3.400;2023-06-14T03:27:29;20.70;66.30
46754;DHT22;32500;50.620;3.400;2023-06-14T03:29:55;20.70;65.90
46754;DHT22;32500;50.620;3.400;2023-06-14T03:32:21;20.70;66.90
46754;DHT22;32500;50.620;3.400;2023-06-14T03:34:46;20.70;66.50
46754;DHT22;32500;50.620;3.400;2023-06-14T03:37:12;20.70;66.60
46754;DHT22;32500;50.620;3.400;2023-06-14T03:39:37;20.70;66.20
46754;DHT22;32500;50.620;3.400;2023-06-14T03:42:04;20.70;66.80
46754;DHT22;32500;50.620;3.400;2023-06-14T03:44:29;20.70;67.20
46754;DHT22;32500;50.620;3.400;2023-06-14T03:46:55;20.70;66.80
46754;DHT22;32500;50.620;3.400;2023-06-14T03:49:21;20.70;67.00
46754;DHT22;32500;50.620;3.400;2023-06-14T03:51:46;20.70;66.70
46754;DHT22;32500;50.620;3.400;2023-06-14T03:54:16;20.60;66.50
46754;DHT22;32500;50.620;3.400;2023-06-14T03:56:41;20.60;67.00
46754;DHT22;32500;50.620;3.400;2023-06-14T03:59:07;20.50;67.10
46754;DHT22;32500;50.620;3.400;2023-06-14T04:01:33;20.50;66.50
46754;DHT22;32500;50.620;3.400;2023-06-14T04:03:59;20.40;66.50
46754;DHT22;32500;50.620;3.400;2023-06-14T04:06:24;20.50;66.80
46754;DHT22;32500;50.620;3.400;2023-06-14T04:08:57;20.40;66.60
46754;DHT22;32500;50.620;3.400;2023-06-14T04:11:23;20.40;66.60
46754;DHT22;32500;50.620;3.400;2023-06-14T04:13:50;20.50;66.30
46754;DHT22;32500;50.620;3.400;2023-06-14T04:16:19;20.40;66.30
46754;DHT22;32500;50.620;3.400;2023-06-14T04:18:45;20.40;66.60
46754;DHT22;32500;50.620;3.400;2023-06-14T04:21:12;20.40;66.50
46754;DHT22;32500;50.620;3.400;2023-06-14T04:23:37;20.50;66.00
46754;DHT22;32500;50.620;3.400;2023-06-14T04:26:03;20.40;65.90
46754;DHT22;32500;50.620;3.400;2023-06-14T04:28:29;20.50;65.70
46754;DHT22;32500;50.620;3.400;2023-06-14T04:30:55;20.50;67.10
46754;DHT22;32500;50.620;3.400;2023-06-14T04:33:21;20.60;66.40
46754;DHT22;32500;50.620;3.400;2023-06-14T04:35:50;20.50;66.60
46754;DHT22;32500;50.620;3.400;2023-06-14T04:38:19;20.60;65.30
46754;DHT22;32500;50.620;3.400;2023-06-14T04:40:50;20.60;65.80
46754;DHT22;32500;50.620;3.400;2023-06-14T04:43:18;20.60;65.60
46754;DHT22;32500;50.620;3.400;2023-06-14T04:45:50;20.70;65.60
46754;DHT22;32500;50.620;3.400;2023-06-14T04:48:17;20.60;65.50
46754;DHT22;32500;50.620;3.400;2023-06-14T04:50:43;20.70;65.40
46754;DHT22;32500;50.620;3.400;2023-06-14T04:53:09;20.70;65.30
46754;DHT22;32500;50.620;3.400;2023-06-14T04:55:36;20.70;65.00
46754;DHT22;32500;50.620;3.400;2023-06-14T04:58:02;20.70;65.10
46754;DHT22;32500;50.620;3.400;2023-06-14T05:00:28;20.70;64.70
46754;DHT22;32500;50.620;3.400;2023-06-14T05:02:55;20.70;64.60
46754;DHT22;32500;50.620;3.400;2023-06-14T05:05:22;20.70;65.00
46754;DHT22;32500;50.620;3.400;2023-06-14T05:07:48;20.80;68.60
46754;DHT22;32500;50.620;3.400;2023-06-14T05:10:13;20.90;67.10
46754;DHT22;32500;50.620;3.400;2023-06-14T05:12:39;20.90;64.00
46754;DHT22;32500;50.620;3.400;2023-06-14T05:15:05;20.90;62.10
46754;DHT22;32500;50.620;3.400;2023-06-14T05:17:31;20.90;60.70
46754;DHT22;32500;50.620;3.400;2023-06-14T05:19:56;20.90;60.10
46754;DHT22;32500;50.620;3.400;2023-06-14T05:22:22;20.90;59.90
46754;DHT22;32500;50.620;3.400;2023-06-14T05:24:48;20.90;59.40
46754;DHT22;32500;50.620;3.400;2023-06-14T05:27:14;20.90;59.10
46754;DHT22;32500;50.620;3.400;2023-06-14T05:29:39;20.90;58.80
46754;DHT22;32500;50.620;3.400;2023-06-14T05:32:05;20.90;58.80
46754;DHT22;32500;50.620;3.400;2023-06-14T05:34:31;21.00;58.20
46754;DHT22;32500;50.620;3.400;2023-06-14T05:36:57;21.00;58.40
46754;DHT22;32500;50.620;3.400;2023-06-14T05:39:22;21.00;58.20
46754;DHT22;32500;50.620;3.400;2023-06-14T05:41:49;21.10;58.10
46754;DHT22;32500;50.620;3.400;2023-06-14T05:44:15;21.10;58.00
46754;DHT22;32500;50.620;3.400;2023-06-14T05:46:41;21.10;58.00
46754;DHT22;32500;50.620;3.400;2023-06-14T05:49:06;21.10;57.80
46754;DHT22;32500;50.620;3.400;2023-06-14T05:51:32;21.10;57.80
46754;DHT22;32500;50.620;3.400;2023-06-14T05:53:57;21.10;57.50
46754;DHT22;32500;50.620;3.400;2023-06-14T05:56:23;21.20;56.70
46754;DHT22;32500;50.620;3.400;2023-06-14T05:58:49;21.30;54.40
46754;DHT22;32500;50.620;3.400;2023-06-14T06:01:15;21.30;55.00
46754;DHT22;32500;50.620;3.400;2023-06-14T06:03:42;21.30;55.70
46754;DHT22;32500;50.620;3.400;2023-06-14T06:06:11;21.40;55.40
46754;DHT22;32500;50.620;3.400;2023-06-14T06:08:37;21.60;55.40
46754;DHT22;32500;50.620;3.400;2023-06-14T06:11:02;21.60;54.50
46754;DHT22;32500;50.620;3.400;2023-06-14T06:13:28;21.70;54.50
46754;DHT22;32500;50.620;3.400;2023-06-14T06:15:54;21.70;54.20
46754;DHT22;32500;50.620;3.400;2023-06-14T06:18:19;21.80;55.00
46754;DHT22;32500;50.620;3.400;2023-06-14T06:20:45;21.80;54.10
46754;DHT22;32500;50.620;3.400;2023-06-14T06:23:12;21.80;53.10
46754;DHT22;32500;50.620;3.400;2023-06-14T06:25:38;21.70;54.10
46754;DHT22;32500;50.620;3.400;2023-06-14T06:28:03;21.80;53.60
46754;DHT22;32500;50.620;3.400;2023-06-14T06:30:29;21.90;53.70
46754;DHT22;32500;50.620;3.400;2023-06-14T06:32:54;22.00;54.10
46754;DHT22;32500;50.620;3.400;2023-06-14T06:35:21;22.00;53.20
46754;DHT22;32500;50.620;3.400;2023-06-14T06:37:46;22.20;52.20
46754;DHT22;32500;50.620;3.400;2023-06-14T06:40:12;22.20;51.80
46754;DHT22;32500;50.620;3.400;2023-06-14T06:42:38;22.20;51.40
46754;DHT22;32500;50.620;3.400;2023-06-14T06:45:04;22.20;51.10
46754;DHT22;32500;50.620;3.400;2023-06-14T06:47:30;22.20;50.50
46754;DHT22;32500;50.620;3.400;2023-06-14T06:49:56;22.30;51.30
46754;DHT22;32500;50.620;3.400;2023-06-14T06:52:22;22.40;49.80
46754;DHT22;32500;50.620;3.400;2023-06-14T06:54:47;22.30;51.20
46754;DHT22;32500;50.620;3.400;2023-06-14T06:57:14;22.40;51.30
46754;DHT22;32500;50.620;3.400;2023-06-14T06:59:40;22.40;51.20
46754;DHT22;32500;50.620;3.400;2023-06-14T07:02:06;22.50;51.10
46754;DHT22;32500;50.620;3.400;2023-06-14T07:04:31;22.50;50.60
46754;DHT22;32500;50.620;3.400;2023-06-14T07:06:57;22.50;50.80
46754;DHT22;32500;50.620;3.400;2023-06-14T07:09:23;22.50;50.50
46754;DHT22;32500;50.620;3.400;2023-06-14T07:11:50;22.50;50.90
46754;DHT22;32500;50.620;3.400;2023-06-14T07:14:16;22.60;50.90
46754;DHT22;32500;50.620;3.400;2023-06-14T07:16:41;22.60;50.10
46754;DHT22;32500;50.620;3.400;2023-06-14T07:19:08;22.50;50.50
46754;DHT22;32500;50.620;3.400;2023-06-14T07:21:34;22.60;50.50
46754;DHT22;32500;50.620;3.400;2023-06-14T07:24:00;22.50;50.90
46754;DHT22;32500;50.620;3.400;2023-06-14T07:26:26;22.60;50.40
46754;DHT22;32500;50.620;3.400;2023-06-14T07:28:52;22.60;51.50
46754;DHT22;32500;50.620;3.400;2023-06-14T07:31:18;22.60;50.90
46754;DHT22;32500;50.620;3.400;2023-06-14T07:33:45;22.50;50.40
46754;DHT22;32500;50.620;3.400;2023-06-14T07:36:10;22.60;51.80
46754;DHT22;32500;50.620;3.400;2023-06-14T07:38:36;22.70;51.20
46754;DHT22;32500;50.620;3.400;2023-06-14T07:41:02;22.80;50.20
46754;DHT22;32500;50.620;3.400;2023-06-14T07:43:28;22.80;51.00
46754;DHT22;32500;50.620;3.400;2023-06-14T07:45:54;22.90;50.20
46754;DHT22;32500;50.620;3.400;2023-06-14T07:48:20;23.00;50.40
46754;DHT22;32500;50.620;3.400;2023-06-14T07:50:46;22.90;49.50
46754;DHT22;32500;50.620;3.400;2023-06-14T07:53:11;23.00;50.60
46754;DHT22;32500;50.620;3.400;2023-06-14T07:55:37;23.00;49.30
46754;DHT22;32500;50.620;3.400;2023-06-14T07:58:05;23.20;49.30
46754;DHT22;32500;50.620;3.400;2023-06-14T08:00:31;23.20;49.20
46754;DHT22;32500;50.620;3.400;2023-06-14T08:02:57;23.20;49.30
46754;DHT22;32500;50.620;3.400;2023-06-14T08:05:26;23.30;50.60
46754;DHT22;32500;50.620;3.400;2023-06-14T08:07:54;23.30;49.80
46754;DHT22;32500;50.620;3.400;2023-06-14T08:10:21;23.30;48.30
46754;DHT22;32500;50.620;3.400;2023-06-14T08:12:47;23.40;50.00
46754;DHT22;32500;50.620;3.400;2023-06-14T08:15:18;23.50;49.00
46754;DHT22;32500;50.620;3.400;2023-06-14T08:17:44;23.50;49.90
46754;DHT22;32500;50.620;3.400;2023-06-14T08:20:10;23.50;50.60
46754;DHT22;32500;50.620;3.400;2023-06-14T08:22:36;23.60;47.10
46754;DHT22;32500;50.620;3.400;2023-06-14T08:25:03;23.60;47.60
46754;DHT22;32500;50.620;3.400;2023-06-14T08:27:30;23.70;48.70
46754;DHT22;32500;50.620;3.400;2023-06-14T08:29:56;23.80;48.90
46754;DHT22;32500;50.620;3.400;2023-06-14T08:32:22;23.90;48.20
46754;DHT22;32500;50.620;3.400;2023-06-14T08:34:48;23.90;47.70
46754;DHT22;32500;50.620;3.400;2023-06-14T08:37:13;23.90;48.20
46754;DHT22;32500;50.620;3.400;2023-06-14T08:39:39;23.90;47.90
46754;DHT22;32500;50.620;3.400;2023-06-14T08:42:06;23.90;48.40
46754;DHT22;32500;50.620;3.400;2023-06-14T08:44:33;24.00;49.10
46754;DHT22;32500;50.620;3.400;2023-06-14T08:46:59;24.10;46.40
46754;DHT22;32500;50.620;3.400;2023-06-14T08:49:26;24.20;47.20
46754;DHT22;32500;50.620;3.400;2023-06-14T08:51:59;24.20;46.40
46754;DHT22;32500;50.620;3.400;2023-06-14T08:54:28;24.30;47.50
46754;DHT22;32500;50.620;3.400;2023-06-14T08:57:00;24.30;46.60
46754;DHT22;32500;50.620;3.400;2023-06-14T08:59:28;24.40;45.90
46754;DHT22;32500;50.620;3.400;2023-06-14T09:01:54;24.40;46.50
46754;DHT22;32500;50.620;3.400;2023-06-14T09:04:23;24.60;44.70
46754;DHT22;32500;50.620;3.400;2023-06-14T09:06:55;24.60;45.00
46754;DHT22;32500;50.620;3.400;2023-06-14T09:09:21;24.70;45.40
46754;DHT22;32500;50.620;3.400;2023-06-14T09:11:51;24.70;46.80
46754;DHT22;32500;50.620;3.400;2023-06-14T09:14:18;24.70;45.40
46754;DHT22;32500;50.620;3.400;2023-06-14T09:16:44;24.70;45.00
46754;DHT22;32500;50.620;3.400;2023-06-14T09:19:23;24.80;47.50
46754;DHT22;32500;50.620;3.400;2023-06-14T09:21:49;24.90;45.80
46754;DHT22;32500;50.620;3.400;2023-06-14T09:24:17;25.00;44.00
46754;DHT22;32500;50.620;3.400;2023-06-14T09:26:42;25.00;44.40
46754;DHT22;32500;50.620;3.400;2023-06-14T09:29:09;25.00;44.70
46754;DHT22;32500;50.620;3.400;2023-06-14T09:31:35;25.10;43.70
46754;DHT22;32500;50.620;3.400;2023-06-14T09:34:02;25.10;46.40
46754;DHT22;32500;50.620;3.400;2023-06-14T09:36:28;25.20;44.20
46754;DHT22;32500;50.620;3.400;2023-06-14T09:39:01;25.40;44.00
46754;DHT22;32500;50.620;3.400;2023-06-14T09:41:36;25.50;42.30
46754;DHT22;32500;50.620;3.400;2023-06-14T09:44:04;25.50;43.70
46754;DHT22;32500;50.620;3.400;2023-06-14T09:46:30;25.50;42.90
46754;DHT22;32500;50.620;3.400;2023-06-14T09:48:57;25.50;44.60
46754;DHT22;32500;50.620;3.400;2023-06-14T09:51:23;25.60;42.90
46754;DHT22;32500;50.620;3.400;2023-06-14T09:53:49;25.70;40.90
46754;DHT22;32500;50.620;3.400;2023-06-14T09:56:22;25.70;42.80
46754;DHT22;32500;50.620;3.400;2023-06-14T09:58:51;25.70;44.40
46754;DHT22;32500;50.620;3.400;2023-06-14T10:01:19;25.80;42.10
46754;DHT22;32500;50.620;3.400;2023-06-14T10:03:46;25.90;42.80
46754;DHT22;32500;50.620;3.400;2023-06-14T10:06:12;26.00;41.40
46754;DHT22;32500;50.620;3.400;2023-06-14T10:08:38;25.90;41.80
46754;DHT22;32500;50.620;3.400;2023-06-14T10:11:04;26.00;42.40
46754;DHT22;32500;50.620;3.400;2023-06-14T10:13:32;26.00;40.80
46754;DHT22;32500;50.620;3.400;2023-06-14T10:16:11;26.00;43.20
46754;DHT22;32500;50.620;3.400;2023-06-14T10:24:32;26.10;42.80
46754;DHT22;32500;50.620;3.400;2023-06-14T10:26:59;26.30;38.50
46754;DHT22;32500;50.620;3.400;2023-06-14T10:29:28;26.20;41.40
46754;DHT22;32500;50.620;3.400;2023-06-14T10:31:58;26.20;40.50
46754;DHT22;32500;50.620;3.400;2023-06-14T10:34:31;26.20;40.80
46754;DHT22;32500;50.620;3.400;2023-06-14T10:37:12;26.30;39.10
46754;DHT22;32500;50.620;3.400;2023-06-14T10:39:47;26.20;42.60
46754;DHT22;32500;50.620;3.400;2023-06-14T10:42:14;26.20;40.60
46754;DHT22;32500;50.620;3.400;2023-06-14T10:44:42;26.30;39.30
46754;DHT22;32500;50.620;3.400;2023-06-14T10:47:21;26.30;38.50
46754;DHT22;32500;50.620;3.400;2023-06-14T10:49:54;26.50;36.90
46754;DHT22;32500;50.620;3.400;2023-06-14T10:52:25;26.40;37.10
46754;DHT22;32500;50.620;3.400;2023-06-14T10:57:35;26.50;36.30
46754;DHT22;32500;50.620;3.400;2023-06-14T11:00:03;26.60;37.40
46754;DHT22;32500;50.620;3.400;2023-06-14T11:05:08;26.80;35.10
46754;DHT22;32500;50.620;3.400;2023-06-14T11:07:54;26.70;36.50
46754;DHT22;32500;50.620;3.400;2023-06-14T11:10:41;26.70;38.60
46754;DHT22;32500;50.620;3.400;2023-06-14T11:13:07;26.70;37.40
46754;DHT22;32500;50.620;3.400;2023-06-14T11:15:35;26.70;36.60
46754;DHT22;32500;50.620;3.400;2023-06-14T11:18:02;26.70;37.30
46754;DHT22;32500;50.620;3.400;2023-06-14T11:20:30;26.90;35.20
46754;DHT22;32500;50.620;3.400;2023-06-14T11:22:56;26.90;35.70
46754;DHT22;32500;50.620;3.400;2023-06-14T11:25:22;26.90;35.60
46754;DHT22;32500;50.620;3.400;2023-06-14T11:27:49;26.90;36.80
46754;DHT22;32500;50.620;3.400;2023-06-14T11:30:16;26.90;38.00
46754;DHT22;32500;50.620;3.400;2023-06-14T11:32:42;27.00;35.50
46754;DHT22;32500;50.620;3.400;2023-06-14T11:35:08;27.10;34.60
46754;DHT22;32500;50.620;3.400;2023-06-14T11:37:36;27.00;35.30
46754;DHT22;32500;50.620;3.400;2023-06-14T11:40:07;27.10;35.20
46754;DHT22;32500;50.620;3.400;2023-06-14T11:42:35;27.00;35.00
46754;DHT22;32500;50.620;3.400;2023-06-14T11:45:01;27.10;35.30
46754;DHT22;32500;50.620;3.400;2023-06-14T11:47:35;27.10;33.40
46754;DHT22;32500;50.620;3.400;2023-06-14T11:50:08;27.10;35.50
46754;DHT22;32500;50.620;3.400;2023-06-14T11:52:35;27.00;34.70
46754;DHT22;32500;50.620;3.400;2023-06-14T11:55:02;27.00;33.80
46754;DHT22;32500;50.620;3.400;2023-06-14T11:57:33;27.00;33.60
46754;DHT22;32500;50.620;3.400;2023-06-14T11:59:59;27.00;34.10
46754;DHT22;32500;50.620;3.400;2023-06-14T12:02:24;27.00;35.10
46754;DHT22;32500;50.620;3.400;2023-06-14T12:04:53;27.00;35.60
46754;DHT22;32500;50.620;3.400;2023-06-14T12:07:19;27.00;34.80
46754;DHT22;32500;50.620;3.400;2023-06-14T12:12:20;27.20;35.10
46754;DHT22;32500;50.620;3.400;2023-06-14T12:14:47;27.20;34.40
46754;DHT22;32500;50.620;3.400;2023-06-14T12:17:13;27.20;36.00
46754;DHT22;32500;50.620;3.400;2023-06-14T12:19:43;27.30;34.60
46754;DHT22;32500;50.620;3.400;2023-06-14T12:22:13;27.50;33.20
46754;DHT22;32500;50.620;3.400;2023-06-14T12:24:42;27.50;33.00
46754;DHT22;32500;50.620;3.400;2023-06-14T12:27:08;27.40;33.60
46754;DHT22;32500;50.620;3.400;2023-06-14T12:29:33;27.40;37.50
46754;DHT22;32500;50.620;3.400;2023-06-14T12:31:59;27.50;35.80
46754;DHT22;32500;50.620;3.400;2023-06-14T12:34:27;27.60;33.50
46754;DHT22;32500;50.620;3.400;2023-06-14T12:36:56;27.60;35.00
46754;DHT22;32500;50.620;3.400;2023-06-14T12:39:22;27.60;34.70
46754;DHT22;32500;50.620;3.400;2023-06-14T12:41:49;27.70;33.70
46754;DHT22;32500;50.620;3.400;2023-06-14T12:44:15;27.80;34.90
46754;DHT22;32500;50.620;3.400;2023-06-14T12:46:41;27.80;38.00
46754;DHT22;32500;50.620;3.400;2023-06-14T12:49:09;27.80;35.70
46754;DHT22;32500;50.620;3.400;2023-06-14T12:51:35;27.90;35.60
46754;DHT22;32500;50.620;3.400;2023-06-14T12:54:01;27.80;32.30
46754;DHT22;32500;50.620;3.400;2023-06-14T12:56:26;27.80;33.10
46754;DHT22;32500;50.620;3.400;2023-06-14T12:58:52;27.80;34.20
46754;DHT22;32500;50.620;3.400;2023-06-14T13:01:18;28.00;34.60
46754;DHT22;32500;50.620;3.400;2023-06-14T13:03:45;28.00;34.10
46754;DHT22;32500;50.620;3.400;2023-06-14T13:06:10;28.00;34.70
46754;DHT22;32500;50.620;3.400;2023-06-14T13:08:36;28.00;35.60
46754;DHT22;32500;50.620;3.400;2023-06-14T13:11:02;28.00;32.40
46754;DHT22;32500;50.620;3.400;2023-06-14T13:13:27;28.00;36.50
46754;DHT22;32500;50.620;3.400;2023-06-14T13:15:53;28.10;34.80
46754;DHT22;32500;50.620;3.400;2023-06-14T13:18:18;28.20;33.90
46754;DHT22;32500;50.620;3.400;2023-06-14T13:20:46;28.20;37.20
46754;DHT22;32500;50.620;3.400;2023-06-14T13:23:12;28.30;36.20
46754;DHT22;32500;50.620;3.400;2023-06-14T13:25:38;28.30;35.60
46754;DHT22;32500;50.620;3.400;2023-06-14T13:28:04;28.30;35.00
46754;DHT22;32500;50.620;3.400;2023-06-14T13:30:31;28.30;35.60
46754;DHT22;32500;50.620;3.400;2023-06-14T13:32:57;28.30;35.60
46754;DHT22;32500;50.620;3.400;2023-06-14T13:35:23;28.20;35.90
46754;DHT22;32500;50.620;3.400;2023-06-14T13:37:49;28.20;37.20
46754;DHT22;32500;50.620;3.400;2023-06-14T13:40:15;28.20;37.20
46754;DHT22;32500;50.620;3.400;2023-06-14T13:42:41;28.30;36.30
46754;DHT22;32500;50.620;3.400;2023-06-14T13:45:07;28.40;35.00
46754;DHT22;32500;50.620;3.400;2023-06-14T13:47:33;28.40;34.10
46754;DHT22;32500;50.620;3.400;2023-06-14T13:49:59;28.30;35.60
46754;DHT22;32500;50.620;3.400;2023-06-14T13:52:25;28.30;34.50
46754;DHT22;32500;50.620;3.400;2023-06-14T13:54:50;28.40;34.60
46754;DHT22;32500;50.620;3.400;2023-06-14T13:57:17;28.40;36.50
46754;DHT22;32500;50.620;3.400;2023-06-14T13:59:43;28.40;34.90
46754;DHT22;32500;50.620;3.400;2023-06-14T14:02:10;28.40;35.60
46754;DHT22;32500;50.620;3.400;2023-06-14T14:04:37;28.10;39.10
46754;DHT22;32500;50.620;3.400;2023-06-14T14:07:04;27.90;39.50
46754;DHT22;32500;50.620;3.400;2023-06-14T14:09:34;27.70;39.80
46754;DHT22;32500;50.620;3.400;2023-06-14T14:12:01;27.60;40.30
46754;DHT22;32500;50.620;3.400;2023-06-14T14:14:31;27.50;40.60
46754;DHT22;32500;50.620;3.400;2023-06-14T14:16:57;27.40;40.90
46754;DHT22;32500;50.620;3.400;2023-06-14T14:19:23;27.40;41.50
46754;DHT22;32500;50.620;3.400;2023-06-14T14:21:49;27.40;41.50
46754;DHT22;32500;50.620;3.400;2023-06-14T14:24:15;27.30;41.60
46754;DHT22;32500;50.620;3.400;2023-06-14T14:26:41;27.20;41.60
46754;DHT22;32500;50.620;3.400;2023-06-14T14:29:08;27.20;41.60
46754;DHT22;32500;50.620;3.400;2023-06-14T14:31:34;27.10;41.80
46754;DHT22;32500;50.620;3.400;2023-06-14T14:34:00;27.00;41.90
46754;DHT22;32500;50.620;3.400;2023-06-14T14:36:26;27.00;42.00
46754;DHT22;32500;50.620;3.400;2023-06-14T14:38:51;26.90;42.00
46754;DHT22;32500;50.620;3.400;2023-06-14T14:41:17;26.90;42.20
46754;DHT22;32500;50.620;3.400;2023-06-14T14:43:43;26.90;43.10
46754;DHT22;32500;50.620;3.400;2023-06-14T14:46:09;26.90;42.50
46754;DHT22;32500;50.620;3.400;2023-06-14T14:48:35;26.90;42.90
46754;DHT22;32500;50.620;3.400;2023-06-14T14:51:00;26.80;42.50
46754;DHT22;32500;50.620;3.400;2023-06-14T14:53:26;26.80;42.90
46754;DHT22;32500;50.620;3.400;2023-06-14T14:55:52;26.80;42.60
46754;DHT22;32500;50.620;3.400;2023-06-14T14:58:17;26.80;42.60
46754;DHT22;32500;50.620;3.400;2023-06-14T15:00:47;26.80;43.10
46754;DHT22;32500;50.620;3.400;2023-06-14T15:03:13;26.80;42.90
46754;DHT22;32500;50.620;3.400;2023-06-14T15:05:39;26.80;42.90
46754;DHT22;32500;50.620;3.400;2023-06-14T15:08:05;26.70;42.80
46754;DHT22;32500;50.620;3.400;2023-06-14T15:10:37;26.70;42.90
46754;DHT22;32500;50.620;3.400;2023-06-14T15:13:05;26.70;42.90
46754;DHT22;32500;50.620;3.400;2023-06-14T15:15:31;26.80;42.90
46754;DHT22;32500;50.620;3.400;2023-06-14T15:17:57;26.70;43.00
46754;DHT22;32500;50.620;3.400;2023-06-14T15:20:22;26.70;43.00
46754;DHT22;32500;50.620;3.400;2023-06-14T15:22:48;26.70;42.90
46754;DHT22;32500;50.620;3.400;2023-06-14T15:25:14;26.70;42.90
46754;DHT22;32500;50.620;3.400;2023-06-14T15:27:39;26.70;42.90
46754;DHT22;32500;50.620;3.400;2023-06-14T15:30:06;26.70;42.90
46754;DHT22;32500;50.620;3.400;2023-06-14T15:32:31;26.70;42.90
46754;DHT22;32500;50.620;3.400;2023-06-14T15:34:57;26.70;43.20
46754;DHT22;32500;50.620;3.400;2023-06-14T15:37:23;26.70;43.60
46754;DHT22;32500;50.620;3.400;2023-06-14T15:39:48;26.60;43.20
46754;DHT22;32500;50.620;3.400;2023-06-14T15:42:14;26.70;43.70
46754;DHT22;32500;50.620;3.400;2023-06-14T15:44:40;26.70;43.40
46754;DHT22;32500;50.620;3.400;2023-06-14T15:47:07;26.70;43.10
46754;DHT22;32500;50.620;3.400;2023-06-14T15:49:33;26.60;43.00